sensor_id;sensor_type;location;lat;lon;timestamp;P1;durP1;ratioP1;P2;durP2;ratioP2
23142;SDS011;11740;51.168;4.112;2023-07-13T00:01:58;10.43;;;1.73;;
23142;SDS011;11740;51.168;4.112;2023-07-13T00:04:25;6.38;;;2.03;;
23142;SDS011;11740;51.168;4.112;2023-07-13T00:06:53;4.85;;;1.80;;
23142;SDS011;11740;51.168;4.112;2023-07-13T00:09:20;8.98;;;2.45;;
23142;SDS011;11740;51.168;4.112;2023-07-13T00:11:52;9.00;;;2.40;;
23142;SDS011;11740;51.168;4.112;2023-07-13T00:14:22;8.30;;;2.00;;
23142;SDS011;11740;51.168;4.112;2023-07-13T00:16:51;9.15;;;2.28;;
23142;SDS011;11740;51.168;4.112;2023-07-13T00:19:18;10.50;;;2.30;;
23142;SDS011;11740;51.168;4.112;2023-07-13T00:21:46;9.52;;;2.00;;
23142;SDS011;11740;51.168;4.112;2023-07-13T00:24:14;7.82;;;1.90;;
23142;SDS011;11740;51.168;4.112;2023-07-13T00:26:50;7.32;;;2.08;;
23142;SDS011;11740;51.168;4.112;2023-07-13T00:29:17;11.25;;;2.40;;
23142;SDS011;11740;51.168;4.112;2023-07-13T00:31:44;6.68;;;2.10;;
23142;SDS011;11740;51.168;4.112;2023-07-13T00:34:12;9.23;;;2.50;;
23142;SDS011;11740;51.168;4.112;2023-07-13T00:36:39;8.23;;;1.95;;
23142;SDS011;11740;51.168;4.112;2023-07-13T00:39:06;9.68;;;2.20;;
23142;SDS011;11740;51.168;4.112;2023-07-13T00:41:33;9.80;;;2.08;;
23142;SDS011;11740;51.168;4.112;2023-07-13T00:44:00;7.55;;;1.85;;
23142;SDS011;11740;51.168;4.112;2023-07-13T00:46:30;7.80;;;2.33;;
23142;SDS011;11740;51.168;4.112;2023-07-13T00:49:01;11.10;;;2.00;;
23142;SDS011;11740;51.168;4.112;2023-07-13T00:51:36;8.55;;;2.60;;
23142;SDS011;11740;51.168;4.112;2023-07-13T00:54:11;11.32;;;2.30;;
23142;SDS011;11740;51.168;4.112;2023-07-13T00:56:43;9.90;;;2.00;;
23142;SDS011;11740;51.168;4.112;2023-07-13T00:59:15;15.35;;;2.75;;
23142;SDS011;11740;51.168;4.112;2023-07-13T01:01:43;8.40;;;2.28;;
23142;SDS011;11740;51.168;4.112;2023-07-13T01:04:10;10.25;;;2.45;;
23142;SDS011;11740;51.168;4.112;2023-07-13T01:06:37;9.27;;;2.40;;
23142;SDS011;11740;51.168;4.112;2023-07-13T01:09:06;12.77;;;2.65;;
23142;SDS011;11740;51.168;4.112;2023-07-13T01:11:34;10.30;;;2.65;;
23142;SDS011;11740;51.168;4.112;2023-07-13T01:14:02;11.07;;;2.38;;
23142;SDS011;11740;51.168;4.112;2023-07-13T01:16:30;13.15;;;2.63;;
23142;SDS011;11740;51.168;4.112;2023-07-13T01:18:59;9.90;;;2.95;;
23142;SDS011;11740;51.168;4.112;2023-07-13T01:21:28;10.43;;;2.28;;
23142;SDS011;11740;51.168;4.112;2023-07-13T01:23:58;10.35;;;2.85;;
23142;SDS011;11740;51.168;4.112;2023-07-13T01:26:25;12.35;;;2.40;;
23142;SDS011;11740;51.168;4.112;2023-07-13T01:28:53;9.85;;;2.35;;
23142;SDS011;11740;51.168;4.112;2023-07-13T01:31:22;9.52;;;2.92;;
23142;SDS011;11740;51.168;4.112;2023-07-13T01:33:49;11.88;;;2.97;;
23142;SDS011;11740;51.168;4.112;2023-07-13T01:36:17;11.63;;;2.50;;
23142;SDS011;11740;51.168;4.112;2023-07-13T01:38:47;11.60;;;2.80;;
23142;SDS011;11740;51.168;4.112;2023-07-13T01:41:14;12.73;;;2.60;;
23142;SDS011;11740;51.168;4.112;2023-07-13T01:43:41;9.15;;;2.78;;
23142;SDS011;11740;51.168;4.112;2023-07-13T01:46:08;12.27;;;2.88;;
23142;SDS011;11740;51.168;4.112;2023-07-13T01:48:49;14.88;;;3.20;;
23142;SDS011;11740;51.168;4.112;2023-07-13T01:51:16;12.57;;;2.90;;
23142;SDS011;11740;51.168;4.112;2023-07-13T01:53:44;17.23;;;2.75;;
23142;SDS011;11740;51.168;4.112;2023-07-13T01:56:12;11.00;;;3.05;;
23142;SDS011;11740;51.168;4.112;2023-07-13T01:58:39;14.15;;;2.88;;
23142;SDS011;11740;51.168;4.112;2023-07-13T02:01:06;15.68;;;2.72;;
23142;SDS011;11740;51.168;4.112;2023-07-13T02:03:33;12.30;;;2.92;;
23142;SDS011;11740;51.168;4.112;2023-07-13T02:06:00;12.27;;;3.13;;
23142;SDS011;11740;51.168;4.112;2023-07-13T02:08:27;11.10;;;3.15;;
23142;SDS011;11740;51.168;4.112;2023-07-13T02:10:54;13.85;;;3.05;;
23142;SDS011;11740;51.168;4.112;2023-07-13T02:13:21;10.88;;;2.58;;
23142;SDS011;11740;51.168;4.112;2023-07-13T02:15:50;11.23;;;2.83;;
23142;SDS011;11740;51.168;4.112;2023-07-13T02:18:18;10.07;;;3.05;;
23142;SDS011;11740;51.168;4.112;2023-07-13T02:20:45;10.43;;;3.20;;
23142;SDS011;11740;51.168;4.112;2023-07-13T02:23:11;16.48;;;3.53;;
23142;SDS011;11740;51.168;4.112;2023-07-13T02:25:38;13.52;;;3.10;;
23142;SDS011;11740;51.168;4.112;2023-07-13T02:28:06;13.50;;;2.97;;
23142;SDS011;11740;51.168;4.112;2023-07-13T02:30:33;13.77;;;3.38;;
23142;SDS011;11740;51.168;4.112;2023-07-13T02:33:01;10.88;;;2.65;;
23142;SDS011;11740;51.168;4.112;2023-07-13T02:35:29;13.55;;;3.25;;
23142;SDS011;11740;51.168;4.112;2023-07-13T02:37:56;11.85;;;3.08;;
23142;SDS011;11740;51.168;4.112;2023-07-13T02:40:23;13.35;;;3.08;;
23142;SDS011;11740;51.168;4.112;2023-07-13T02:42:50;11.43;;;2.78;;
23142;SDS011;11740;51.168;4.112;2023-07-13T02:45:17;16.90;;;3.95;;
23142;SDS011;11740;51.168;4.112;2023-07-13T02:47:44;12.10;;;2.75;;
23142;SDS011;11740;51.168;4.112;2023-07-13T02:50:11;12.73;;;3.65;;
23142;SDS011;11740;51.168;4.112;2023-07-13T02:52:38;11.18;;;3.13;;
23142;SDS011;11740;51.168;4.112;2023-07-13T02:55:05;13.38;;;2.90;;
23142;SDS011;11740;51.168;4.112;2023-07-13T02:57:32;13.80;;;3.03;;
23142;SDS011;11740;51.168;4.112;2023-07-13T03:00:00;13.68;;;3.40;;
23142;SDS011;11740;51.168;4.112;2023-07-13T03:02:32;13.93;;;3.42;;
23142;SDS011;11740;51.168;4.112;2023-07-13T03:05:00;14.43;;;3.33;;
23142;SDS011;11740;51.168;4.112;2023-07-13T03:07:28;19.77;;;3.72;;
23142;SDS011;11740;51.168;4.112;2023-07-13T03:09:57;12.02;;;2.70;;
23142;SDS011;11740;51.168;4.112;2023-07-13T03:12:25;12.95;;;3.88;;
23142;SDS011;11740;51.168;4.112;2023-07-13T03:14:52;16.02;;;4.10;;
23142;SDS011;11740;51.168;4.112;2023-07-13T03:17:19;11.80;;;3.40;;
23142;SDS011;11740;51.168;4.112;2023-07-13T03:19:46;12.73;;;3.78;;
23142;SDS011;11740;51.168;4.112;2023-07-13T03:22:18;14.45;;;3.75;;
23142;SDS011;11740;51.168;4.112;2023-07-13T03:24:46;17.33;;;4.07;;
23142;SDS011;11740;51.168;4.112;2023-07-13T03:27:13;20.70;;;3.90;;
23142;SDS011;11740;51.168;4.112;2023-07-13T03:29:41;13.65;;;3.40;;
23142;SDS011;11740;51.168;4.112;2023-07-13T03:32:08;13.98;;;3.90;;
23142;SDS011;11740;51.168;4.112;2023-07-13T03:34:35;14.80;;;3.42;;
23142;SDS011;11740;51.168;4.112;2023-07-13T03:37:03;16.35;;;3.50;;
23142;SDS011;11740;51.168;4.112;2023-07-13T03:39:30;16.55;;;3.45;;
23142;SDS011;11740;51.168;4.112;2023-07-13T03:41:57;11.25;;;3.25;;
23142;SDS011;11740;51.168;4.112;2023-07-13T03:44:24;13.80;;;3.40;;
23142;SDS011;11740;51.168;4.112;2023-07-13T03:46:51;12.43;;;3.30;;
23142;SDS011;11740;51.168;4.112;2023-07-13T03:49:18;13.50;;;3.08;;
23142;SDS011;11740;51.168;4.112;2023-07-13T03:51:45;16.83;;;3.30;;
23142;SDS011;11740;51.168;4.112;2023-07-13T03:54:12;16.42;;;3.67;;
23142;SDS011;11740;51.168;4.112;2023-07-13T03:56:39;13.95;;;3.22;;
23142;SDS011;11740;51.168;4.112;2023-07-13T03:59:06;13.20;;;3.55;;
23142;SDS011;11740;51.168;4.112;2023-07-13T04:01:33;14.40;;;3.17;;
23142;SDS011;11740;51.168;4.112;2023-07-13T04:04:01;14.98;;;3.45;;
23142;SDS011;11740;51.168;4.112;2023-07-13T04:06:29;18.92;;;3.42;;
23142;SDS011;11740;51.168;4.112;2023-07-13T04:08:58;16.65;;;4.38;;
23142;SDS011;11740;51.168;4.112;2023-07-13T04:11:30;15.15;;;2.97;;
23142;SDS011;11740;51.168;4.112;2023-07-13T04:13:59;14.60;;;3.75;;
23142;SDS011;11740;51.168;4.112;2023-07-13T04:16:26;14.07;;;3.60;;
23142;SDS011;11740;51.168;4.112;2023-07-13T04:18:53;13.40;;;3.08;;
23142;SDS011;11740;51.168;4.112;2023-07-13T04:21:26;17.50;;;3.95;;
23142;SDS011;11740;51.168;4.112;2023-07-13T04:23:55;15.15;;;3.95;;
23142;SDS011;11740;51.168;4.112;2023-07-13T04:26:22;16.23;;;3.72;;
23142;SDS011;11740;51.168;4.112;2023-07-13T04:28:50;15.65;;;3.95;;
23142;SDS011;11740;51.168;4.112;2023-07-13T04:31:18;15.57;;;3.42;;
23142;SDS011;11740;51.168;4.112;2023-07-13T04:33:45;17.25;;;3.70;;
23142;SDS011;11740;51.168;4.112;2023-07-13T04:36:14;15.60;;;3.38;;
23142;SDS011;11740;51.168;4.112;2023-07-13T04:38:42;18.67;;;4.07;;
23142;SDS011;11740;51.168;4.112;2023-07-13T04:41:10;10.57;;;3.30;;
23142;SDS011;11740;51.168;4.112;2023-07-13T04:43:37;16.20;;;3.42;;
23142;SDS011;11740;51.168;4.112;2023-07-13T04:46:08;16.83;;;4.10;;
23142;SDS011;11740;51.168;4.112;2023-07-13T04:48:38;17.13;;;3.67;;
23142;SDS011;11740;51.168;4.112;2023-07-13T04:51:05;15.80;;;3.35;;
23142;SDS011;11740;51.168;4.112;2023-07-13T04:53:33;15.25;;;3.50;;
23142;SDS011;11740;51.168;4.112;2023-07-13T04:56:01;13.85;;;3.80;;
23142;SDS011;11740;51.168;4.112;2023-07-13T04:58:29;15.95;;;3.45;;
23142;SDS011;11740;51.168;4.112;2023-07-13T05:01:01;13.48;;;3.80;;
23142;SDS011;11740;51.168;4.112;2023-07-13T05:03:30;10.25;;;3.40;;
23142;SDS011;11740;51.168;4.112;2023-07-13T05:05:58;20.42;;;3.70;;
23142;SDS011;11740;51.168;4.112;2023-07-13T05:08:38;15.88;;;3.63;;
23142;SDS011;11740;51.168;4.112;2023-07-13T05:11:05;16.25;;;4.05;;
23142;SDS011;11740;51.168;4.112;2023-07-13T05:13:33;14.43;;;3.67;;
23142;SDS011;11740;51.168;4.112;2023-07-13T05:16:01;17.30;;;3.80;;
23142;SDS011;11740;51.168;4.112;2023-07-13T05:18:32;16.25;;;3.63;;
23142;SDS011;11740;51.168;4.112;2023-07-13T05:21:03;15.80;;;3.55;;
23142;SDS011;11740;51.168;4.112;2023-07-13T05:23:34;16.10;;;3.58;;
23142;SDS011;11740;51.168;4.112;2023-07-13T05:26:02;16.70;;;3.70;;
23142;SDS011;11740;51.168;4.112;2023-07-13T05:28:34;15.20;;;3.80;;
23142;SDS011;11740;51.168;4.112;2023-07-13T05:31:02;12.30;;;3.33;;
23142;SDS011;11740;51.168;4.112;2023-07-13T05:33:29;17.02;;;3.63;;
23142;SDS011;11740;51.168;4.112;2023-07-13T05:35:56;16.25;;;3.70;;
23142;SDS011;11740;51.168;4.112;2023-07-13T05:38:23;14.43;;;3.58;;
23142;SDS011;11740;51.168;4.112;2023-07-13T05:40:50;14.57;;;3.95;;
23142;SDS011;11740;51.168;4.112;2023-07-13T05:43:20;15.77;;;3.92;;
23142;SDS011;11740;51.168;4.112;2023-07-13T05:45:47;19.77;;;3.50;;
23142;SDS011;11740;51.168;4.112;2023-07-13T05:48:16;13.25;;;3.42;;
23142;SDS011;11740;51.168;4.112;2023-07-13T05:50:42;14.25;;;3.55;;
23142;SDS011;11740;51.168;4.112;2023-07-13T05:53:09;16.17;;;3.53;;
23142;SDS011;11740;51.168;4.112;2023-07-13T05:55:42;15.15;;;3.63;;
23142;SDS011;11740;51.168;4.112;2023-07-13T05:58:10;17.65;;;3.70;;
23142;SDS011;11740;51.168;4.112;2023-07-13T06:00:38;16.90;;;3.40;;
23142;SDS011;11740;51.168;4.112;2023-07-13T06:03:06;19.25;;;4.22;;
23142;SDS011;11740;51.168;4.112;2023-07-13T06:05:33;12.57;;;3.63;;
23142;SDS011;11740;51.168;4.112;2023-07-13T06:08:03;16.85;;;3.85;;
23142;SDS011;11740;51.168;4.112;2023-07-13T06:10:34;15.27;;;3.42;;
23142;SDS011;11740;51.168;4.112;2023-07-13T06:13:02;11.30;;;3.22;;
23142;SDS011;11740;51.168;4.112;2023-07-13T06:15:32;15.82;;;3.53;;
23142;SDS011;11740;51.168;4.112;2023-07-13T06:17:59;15.50;;;3.45;;
23142;SDS011;11740;51.168;4.112;2023-07-13T06:20:26;20.65;;;4.80;;
23142;SDS011;11740;51.168;4.112;2023-07-13T06:22:53;13.57;;;3.80;;
23142;SDS011;11740;51.168;4.112;2023-07-13T06:25:20;15.48;;;4.13;;
23142;SDS011;11740;51.168;4.112;2023-07-13T06:27:47;16.27;;;4.03;;
23142;SDS011;11740;51.168;4.112;2023-07-13T06:30:14;17.83;;;4.07;;
23142;SDS011;11740;51.168;4.112;2023-07-13T06:32:41;17.17;;;3.90;;
23142;SDS011;11740;51.168;4.112;2023-07-13T06:35:08;12.93;;;4.07;;
23142;SDS011;11740;51.168;4.112;2023-07-13T06:37:39;12.55;;;3.95;;
23142;SDS011;11740;51.168;4.112;2023-07-13T06:40:06;18.15;;;3.80;;
23142;SDS011;11740;51.168;4.112;2023-07-13T06:42:34;13.05;;;3.63;;
23142;SDS011;11740;51.168;4.112;2023-07-13T06:45:01;16.05;;;3.85;;
23142;SDS011;11740;51.168;4.112;2023-07-13T06:47:28;15.52;;;4.00;;
23142;SDS011;11740;51.168;4.112;2023-07-13T06:49:59;11.73;;;3.67;;
23142;SDS011;11740;51.168;4.112;2023-07-13T06:52:26;14.60;;;3.50;;
23142;SDS011;11740;51.168;4.112;2023-07-13T06:54:53;17.27;;;4.07;;
23142;SDS011;11740;51.168;4.112;2023-07-13T06:57:20;15.70;;;3.88;;
23142;SDS011;11740;51.168;4.112;2023-07-13T06:59:47;17.85;;;4.15;;
23142;SDS011;11740;51.168;4.112;2023-07-13T07:02:14;16.10;;;3.78;;
23142;SDS011;11740;51.168;4.112;2023-07-13T07:04:41;16.25;;;3.42;;
23142;SDS011;11740;51.168;4.112;2023-07-13T07:07:08;16.08;;;4.28;;
23142;SDS011;11740;51.168;4.112;2023-07-13T07:09:35;18.00;;;4.28;;
23142;SDS011;11740;51.168;4.112;2023-07-13T07:12:02;14.00;;;3.65;;
23142;SDS011;11740;51.168;4.112;2023-07-13T07:14:30;15.27;;;3.80;;
23142;SDS011;11740;51.168;4.112;2023-07-13T07:16:58;13.20;;;3.40;;
23142;SDS011;11740;51.168;4.112;2023-07-13T07:19:25;18.30;;;4.65;;
23142;SDS011;11740;51.168;4.112;2023-07-13T07:21:55;16.20;;;4.40;;
23142;SDS011;11740;51.168;4.112;2023-07-13T07:24:22;17.35;;;4.07;;
23142;SDS011;11740;51.168;4.112;2023-07-13T07:26:49;14.88;;;4.07;;
23142;SDS011;11740;51.168;4.112;2023-07-13T07:29:19;15.35;;;4.00;;
23142;SDS011;11740;51.168;4.112;2023-07-13T07:31:49;20.90;;;4.70;;
23142;SDS011;11740;51.168;4.112;2023-07-13T07:34:32;16.60;;;3.72;;
23142;SDS011;11740;51.168;4.112;2023-07-13T07:36:59;17.63;;;4.45;;
23142;SDS011;11740;51.168;4.112;2023-07-13T07:39:30;16.25;;;4.55;;
23142;SDS011;11740;51.168;4.112;2023-07-13T07:41:57;18.88;;;4.25;;
23142;SDS011;11740;51.168;4.112;2023-07-13T07:44:25;16.17;;;4.47;;
23142;SDS011;11740;51.168;4.112;2023-07-13T07:46:53;16.30;;;4.40;;
23142;SDS011;11740;51.168;4.112;2023-07-13T07:49:20;14.90;;;4.38;;
23142;SDS011;11740;51.168;4.112;2023-07-13T07:51:47;16.08;;;3.90;;
23142;SDS011;11740;51.168;4.112;2023-07-13T07:54:15;13.77;;;3.88;;
23142;SDS011;11740;51.168;4.112;2023-07-13T07:57:02;14.45;;;4.05;;
23142;SDS011;11740;51.168;4.112;2023-07-13T07:59:32;14.02;;;4.45;;
23142;SDS011;11740;51.168;4.112;2023-07-13T08:02:02;16.27;;;4.57;;
23142;SDS011;11740;51.168;4.112;2023-07-13T08:04:33;16.10;;;4.10;;
23142;SDS011;11740;51.168;4.112;2023-07-13T08:07:02;11.70;;;3.72;;
23142;SDS011;11740;51.168;4.112;2023-07-13T08:09:30;17.70;;;4.55;;
23142;SDS011;11740;51.168;4.112;2023-07-13T08:11:57;21.35;;;4.28;;
23142;SDS011;11740;51.168;4.112;2023-07-13T08:14:27;15.88;;;4.32;;
23142;SDS011;11740;51.168;4.112;2023-07-13T08:17:12;11.00;;;3.85;;
23142;SDS011;11740;51.168;4.112;2023-07-13T08:19:39;13.35;;;3.70;;
23142;SDS011;11740;51.168;4.112;2023-07-13T08:22:06;11.18;;;3.63;;
23142;SDS011;11740;51.168;4.112;2023-07-13T08:24:33;13.85;;;4.10;;
23142;SDS011;11740;51.168;4.112;2023-07-13T08:27:00;17.67;;;4.18;;
23142;SDS011;11740;51.168;4.112;2023-07-13T08:29:27;12.93;;;3.53;;
23142;SDS011;11740;51.168;4.112;2023-07-13T08:31:54;13.20;;;3.50;;
23142;SDS011;11740;51.168;4.112;2023-07-13T08:34:21;10.95;;;3.17;;
23142;SDS011;11740;51.168;4.112;2023-07-13T08:36:48;11.35;;;3.03;;
23142;SDS011;11740;51.168;4.112;2023-07-13T08:39:15;11.48;;;3.05;;
23142;SDS011;11740;51.168;4.112;2023-07-13T08:41:42;8.27;;;2.50;;
23142;SDS011;11740;51.168;4.112;2023-07-13T08:47:06;7.30;;;2.38;;
23142;SDS011;11740;51.168;4.112;2023-07-13T08:49:37;13.60;;;3.22;;
23142;SDS011;11740;51.168;4.112;2023-07-13T08:52:15;8.45;;;2.45;;
23142;SDS011;11740;51.168;4.112;2023-07-13T08:54:53;9.27;;;2.65;;
23142;SDS011;11740;51.168;4.112;2023-07-13T08:57:33;10.68;;;2.80;;
23142;SDS011;11740;51.168;4.112;2023-07-13T09:00:02;9.48;;;2.75;;
23142;SDS011;11740;51.168;4.112;2023-07-13T09:02:39;8.45;;;2.47;;
23142;SDS011;11740;51.168;4.112;2023-07-13T09:10:45;7.25;;;2.35;;
23142;SDS011;11740;51.168;4.112;2023-07-13T09:15:52;7.70;;;2.63;;
23142;SDS011;11740;51.168;4.112;2023-07-13T09:18:31;7.38;;;2.28;;
23142;SDS011;11740;51.168;4.112;2023-07-13T09:21:10;7.20;;;2.53;;
23142;SDS011;11740;51.168;4.112;2023-07-13T09:24:01;8.05;;;2.35;;
23142;SDS011;11740;51.168;4.112;2023-07-13T09:27:08;6.10;;;2.22;;
23142;SDS011;11740;51.168;4.112;2023-07-13T09:29:55;8.15;;;2.35;;
23142;SDS011;11740;51.168;4.112;2023-07-13T09:32:34;8.90;;;2.17;;
23142;SDS011;11740;51.168;4.112;2023-07-13T09:35:11;8.27;;;2.35;;
23142;SDS011;11740;51.168;4.112;2023-07-13T09:37:43;9.70;;;2.13;;
23142;SDS011;11740;51.168;4.112;2023-07-13T09:43:27;7.63;;;2.37;;
23142;SDS011;11740;51.168;4.112;2023-07-13T09:45:55;5.43;;;1.88;;
23142;SDS011;11740;51.168;4.112;2023-07-13T09:48:22;9.95;;;2.38;;
23142;SDS011;11740;51.168;4.112;2023-07-13T09:50:54;8.55;;;2.30;;
23142;SDS011;11740;51.168;4.112;2023-07-13T09:53:23;7.72;;;2.00;;
23142;SDS011;11740;51.168;4.112;2023-07-13T09:55:50;6.05;;;2.20;;
23142;SDS011;11740;51.168;4.112;2023-07-13T09:58:24;5.05;;;1.88;;
23142;SDS011;11740;51.168;4.112;2023-07-13T10:00:57;7.90;;;2.17;;
23142;SDS011;11740;51.168;4.112;2023-07-13T10:03:35;9.75;;;2.00;;
23142;SDS011;11740;51.168;4.112;2023-07-13T10:06:14;5.20;;;2.00;;
23142;SDS011;11740;51.168;4.112;2023-07-13T10:08:45;8.45;;;2.05;;
23142;SDS011;11740;51.168;4.112;2023-07-13T10:14:17;6.72;;;2.03;;
23142;SDS011;11740;51.168;4.112;2023-07-13T10:16:49;6.07;;;2.05;;
23142;SDS011;11740;51.168;4.112;2023-07-13T10:19:31;9.38;;;2.90;;
23142;SDS011;11740;51.168;4.112;2023-07-13T10:22:02;5.93;;;2.17;;
23142;SDS011;11740;51.168;4.112;2023-07-13T10:25:12;5.60;;;2.20;;
23142;SDS011;11740;51.168;4.112;2023-07-13T10:27:44;6.95;;;1.92;;
23142;SDS011;11740;51.168;4.112;2023-07-13T10:30:14;7.63;;;2.25;;
23142;SDS011;11740;51.168;4.112;2023-07-13T10:32:46;7.13;;;1.92;;
23142;SDS011;11740;51.168;4.112;2023-07-13T10:35:15;9.18;;;2.50;;
23142;SDS011;11740;51.168;4.112;2023-07-13T10:37:47;6.13;;;2.28;;
23142;SDS011;11740;51.168;4.112;2023-07-13T10:40:19;5.90;;;1.85;;
23142;SDS011;11740;51.168;4.112;2023-07-13T10:42:52;3.45;;;1.95;;
23142;SDS011;11740;51.168;4.112;2023-07-13T10:45:21;5.65;;;1.90;;
23142;SDS011;11740;51.168;4.112;2023-07-13T10:47:50;6.70;;;1.92;;
23142;SDS011;11740;51.168;4.112;2023-07-13T10:50:23;5.10;;;1.80;;
23142;SDS011;11740;51.168;4.112;2023-07-13T10:52:53;10.23;;;2.30;;
23142;SDS011;11740;51.168;4.112;2023-07-13T10:55:38;7.43;;;2.05;;
23142;SDS011;11740;51.168;4.112;2023-07-13T10:58:22;5.38;;;2.08;;
23142;SDS011;11740;51.168;4.112;2023-07-13T11:03:35;9.07;;;2.75;;
23142;SDS011;11740;51.168;4.112;2023-07-13T11:06:15;8.15;;;2.55;;
23142;SDS011;11740;51.168;4.112;2023-07-13T11:08:56;5.55;;;2.10;;
23142;SDS011;11740;51.168;4.112;2023-07-13T11:14:04;7.28;;;2.28;;
23142;SDS011;11740;51.168;4.112;2023-07-13T11:16:52;8.63;;;2.33;;
23142;SDS011;11740;51.168;4.112;2023-07-13T11:22:03;6.05;;;2.15;;
23142;SDS011;11740;51.168;4.112;2023-07-13T11:27:30;3.85;;;2.17;;
23142;SDS011;11740;51.168;4.112;2023-07-13T11:33:01;8.88;;;3.40;;
23142;SDS011;11740;51.168;4.112;2023-07-13T11:38:35;6.10;;;2.75;;
23142;SDS011;11740;51.168;4.112;2023-07-13T11:41:15;8.00;;;3.08;;
23142;SDS011;11740;51.168;4.112;2023-07-13T11:43:50;5.95;;;2.70;;
23142;SDS011;11740;51.168;4.112;2023-07-13T11:46:25;5.07;;;2.30;;
23142;SDS011;11740;51.168;4.112;2023-07-13T11:48:54;5.00;;;2.30;;
23142;SDS011;11740;51.168;4.112;2023-07-13T11:51:31;9.55;;;2.70;;
23142;SDS011;11740;51.168;4.112;2023-07-13T11:54:04;6.38;;;2.50;;
23142;SDS011;11740;51.168;4.112;2023-07-13T11:56:47;5.53;;;2.30;;
23142;SDS011;11740;51.168;4.112;2023-07-13T11:59:16;5.25;;;2.03;;
23142;SDS011;11740;51.168;4.112;2023-07-13T12:01:51;4.90;;;1.77;;
23142;SDS011;11740;51.168;4.112;2023-07-13T12:04:22;3.03;;;1.48;;
23142;SDS011;11740;51.168;4.112;2023-07-13T12:07:07;2.33;;;1.60;;
23142;SDS011;11740;51.168;4.112;2023-07-13T12:09:43;4.45;;;1.98;;
23142;SDS011;11740;51.168;4.112;2023-07-13T12:12:14;3.35;;;1.75;;
23142;SDS011;11740;51.168;4.112;2023-07-13T12:14:45;4.18;;;1.77;;
23142;SDS011;11740;51.168;4.112;2023-07-13T12:17:19;3.53;;;1.52;;
23142;SDS011;11740;51.168;4.112;2023-07-13T12:19:51;3.90;;;1.75;;
23142;SDS011;11740;51.168;4.112;2023-07-13T12:22:19;3.90;;;1.50;;
23142;SDS011;11740;51.168;4.112;2023-07-13T12:24:47;4.68;;;1.70;;
23142;SDS011;11740;51.168;4.112;2023-07-13T12:27:22;5.97;;;1.77;;
23142;SDS011;11740;51.168;4.112;2023-07-13T12:32:56;3.90;;;2.08;;
23142;SDS011;11740;51.168;4.112;2023-07-13T12:35:27;4.68;;;1.83;;
23142;SDS011;11740;51.168;4.112;2023-07-13T12:37:57;3.97;;;1.98;;
23142;SDS011;11740;51.168;4.112;2023-07-13T12:40:31;5.20;;;2.38;;
23142;SDS011;11740;51.168;4.112;2023-07-13T12:43:02;8.50;;;2.92;;
23142;SDS011;11740;51.168;4.112;2023-07-13T12:45:33;4.05;;;2.20;;
23142;SDS011;11740;51.168;4.112;2023-07-13T12:48:04;4.75;;;2.25;;
23142;SDS011;11740;51.168;4.112;2023-07-13T12:50:43;3.33;;;2.20;;
23142;SDS011;11740;51.168;4.112;2023-07-13T12:53:15;7.93;;;2.50;;
23142;SDS011;11740;51.168;4.112;2023-07-13T12:55:54;4.00;;;2.30;;
23142;SDS011;11740;51.168;4.112;2023-07-13T13:00:56;5.53;;;2.92;;
23142;SDS011;11740;51.168;4.112;2023-07-13T13:08:41;6.22;;;2.90;;
23142;SDS011;11740;51.168;4.112;2023-07-13T13:11:10;7.22;;;2.28;;
23142;SDS011;11740;51.168;4.112;2023-07-13T13:13:36;6.65;;;2.42;;
23142;SDS011;11740;51.168;4.112;2023-07-13T13:18:55;6.15;;;2.83;;
23142;SDS011;11740;51.168;4.112;2023-07-13T13:21:23;5.22;;;2.78;;
23142;SDS011;11740;51.168;4.112;2023-07-13T13:23:51;5.25;;;2.40;;
23142;SDS011;11740;51.168;4.112;2023-07-13T13:26:21;6.07;;;2.60;;
23142;SDS011;11740;51.168;4.112;2023-07-13T13:28:49;5.53;;;2.40;;
23142;SDS011;11740;51.168;4.112;2023-07-13T13:31:16;7.78;;;2.58;;
23142;SDS011;11740;51.168;4.112;2023-07-13T13:33:44;5.35;;;2.22;;
23142;SDS011;11740;51.168;4.112;2023-07-13T13:38:47;6.22;;;2.20;;
23142;SDS011;11740;51.168;4.112;2023-07-13T13:41:15;6.68;;;2.78;;
23142;SDS011;11740;51.168;4.112;2023-07-13T13:43:43;4.63;;;2.05;;
23142;SDS011;11740;51.168;4.112;2023-07-13T13:46:17;5.55;;;2.53;;
23142;SDS011;11740;51.168;4.112;2023-07-13T13:48:51;4.60;;;2.45;;
23142;SDS011;11740;51.168;4.112;2023-07-13T13:51:19;7.05;;;2.53;;
23142;SDS011;11740;51.168;4.112;2023-07-13T13:53:48;6.07;;;2.20;;
23142;SDS011;11740;51.168;4.112;2023-07-13T13:56:17;9.35;;;2.33;;
23142;SDS011;11740;51.168;4.112;2023-07-13T13:58:45;7.35;;;2.55;;
23142;SDS011;11740;51.168;4.112;2023-07-13T14:01:14;7.88;;;2.70;;
23142;SDS011;11740;51.168;4.112;2023-07-13T14:03:46;5.95;;;2.30;;
23142;SDS011;11740;51.168;4.112;2023-07-13T14:06:17;9.27;;;2.83;;
23142;SDS011;11740;51.168;4.112;2023-07-13T14:08:45;6.88;;;2.70;;
23142;SDS011;11740;51.168;4.112;2023-07-13T14:11:14;8.23;;;2.45;;
23142;SDS011;11740;51.168;4.112;2023-07-13T14:13:44;6.30;;;2.20;;
23142;SDS011;11740;51.168;4.112;2023-07-13T14:16:16;6.20;;;2.17;;
23142;SDS011;11740;51.168;4.112;2023-07-13T14:18:47;3.85;;;1.95;;
23142;SDS011;11740;51.168;4.112;2023-07-13T14:21:17;6.20;;;2.20;;
23142;SDS011;11740;51.168;4.112;2023-07-13T14:23:46;5.47;;;2.08;;
23142;SDS011;11740;51.168;4.112;2023-07-13T14:26:15;6.35;;;2.15;;
23142;SDS011;11740;51.168;4.112;2023-07-13T14:28:50;4.32;;;2.05;;
23142;SDS011;11740;51.168;4.112;2023-07-13T14:31:23;3.60;;;2.10;;
23142;SDS011;11740;51.168;4.112;2023-07-13T14:33:56;6.78;;;2.33;;
23142;SDS011;11740;51.168;4.112;2023-07-13T14:36:26;3.33;;;2.10;;
23142;SDS011;11740;51.168;4.112;2023-07-13T14:39:13;5.65;;;2.00;;
23142;SDS011;11740;51.168;4.112;2023-07-13T14:41:43;5.00;;;2.30;;
23142;SDS011;11740;51.168;4.112;2023-07-13T14:44:15;6.18;;;2.08;;
23142;SDS011;11740;51.168;4.112;2023-07-13T14:46:47;6.45;;;2.03;;
23142;SDS011;11740;51.168;4.112;2023-07-13T14:49:16;6.00;;;2.10;;
23142;SDS011;11740;51.168;4.112;2023-07-13T14:52:13;5.20;;;2.00;;
23142;SDS011;11740;51.168;4.112;2023-07-13T14:54:44;5.32;;;2.50;;
23142;SDS011;11740;51.168;4.112;2023-07-13T14:57:13;4.38;;;2.22;;
23142;SDS011;11740;51.168;4.112;2023-07-13T14:59:45;4.68;;;2.03;;
23142;SDS011;11740;51.168;4.112;2023-07-13T15:02:29;6.18;;;2.30;;
23142;SDS011;11740;51.168;4.112;2023-07-13T15:05:01;5.00;;;2.03;;
23142;SDS011;11740;51.168;4.112;2023-07-13T15:07:29;7.03;;;2.45;;
23142;SDS011;11740;51.168;4.112;2023-07-13T15:09:56;5.43;;;1.80;;
23142;SDS011;11740;51.168;4.112;2023-07-13T15:12:22;6.78;;;2.13;;
23142;SDS011;11740;51.168;4.112;2023-07-13T15:14:50;6.65;;;2.28;;
23142;SDS011;11740;51.168;4.112;2023-07-13T15:17:28;5.78;;;1.90;;
23142;SDS011;11740;51.168;4.112;2023-07-13T15:20:11;5.63;;;2.22;;
23142;SDS011;11740;51.168;4.112;2023-07-13T15:22:46;5.32;;;1.90;;
23142;SDS011;11740;51.168;4.112;2023-07-13T15:25:18;6.20;;;2.25;;
23142;SDS011;11740;51.168;4.112;2023-07-13T15:27:48;5.88;;;2.00;;
23142;SDS011;11740;51.168;4.112;2023-07-13T15:30:15;5.95;;;2.45;;
23142;SDS011;11740;51.168;4.112;2023-07-13T15:32:43;4.07;;;1.88;;
23142;SDS011;11740;51.168;4.112;2023-07-13T15:37:46;4.60;;;2.13;;
23142;SDS011;11740;51.168;4.112;2023-07-13T15:40:14;5.60;;;2.00;;
23142;SDS011;11740;51.168;4.112;2023-07-13T15:42:41;7.75;;;2.30;;
23142;SDS011;11740;51.168;4.112;2023-07-13T15:45:14;6.05;;;1.75;;
23142;SDS011;11740;51.168;4.112;2023-07-13T15:47:44;5.63;;;2.20;;
23142;SDS011;11740;51.168;4.112;2023-07-13T15:50:17;4.43;;;2.08;;
23142;SDS011;11740;51.168;4.112;2023-07-13T15:52:49;4.45;;;2.00;;